Time;durP1;ratioP1;P1;durP2;ratioP2;P2;SDS_P1;SDS_P2;PMS_P1;PMS_P2;Temp;Humidity;BMP_temperature;BMP_pressure;BME280_temperature;BME280_humidity;BME280_pressure;Samples;Min_cycle;Max_cycle;Signal;HPM_P1;HPM_P2
2023/03/05 00:00:45;;;;;;;2.50;0.30;;;26.40;99.90;;;;;;5040133;28;20193;-82
2023/03/05 00:03:18;;;;;;;2.70;0.50;;;26.50;99.90;;;;;;5046306;28;20197;-81
2023/03/05 00:05:49;;;;;;;0.85;0.28;;;26.70;99.90;;;;;;5051499;28;20196;-80
2023/03/05 00:08:20;;;;;;;1.45;0.52;;;26.80;99.90;;;;;;5052461;28;20192;-83
2023/03/05 00:10:59;;;;;;;2.13;0.30;;;26.80;99.90;;;;;;5053037;28;20587;-82
2023/03/05 00:13:31;;;;;;;2.05;0.50;;;26.90;99.90;;;;;;5053625;28;20200;-83
2023/03/05 00:16:03;;;;;;;1.30;0.30;;;26.90;99.90;;;;;;5053279;28;20185;-83
2023/03/05 00:18:36;;;;;;;1.45;0.50;;;26.90;99.90;;;;;;5053196;28;20308;-85
2023/03/05 00:21:18;;;;;;;1.73;0.40;;;27.00;99.90;;;;;;5036879;28;20788;-82
2023/03/05 00:23:49;;;;;;;1.27;0.35;;;27.10;99.90;;;;;;5053040;28;20197;-81
2023/03/05 00:26:21;;;;;;;2.15;0.35;;;27.10;99.90;;;;;;5053040;28;20201;-84
2023/03/05 00:28:52;;;;;;;1.45;0.40;;;27.30;99.90;;;;;;5051154;28;20201;-80
2023/03/05 00:31:29;;;;;;;2.95;0.40;;;27.30;99.90;;;;;;5043147;28;20193;-80
2023/03/05 00:34:03;;;;;;;0.88;0.30;;;27.40;99.90;;;;;;5048508;28;20193;-80
2023/03/05 00:36:35;;;;;;;1.35;0.40;;;27.40;99.90;;;;;;5052856;28;20189;-81
2023/03/05 00:39:06;;;;;;;1.85;0.38;;;27.50;99.90;;;;;;5049768;28;20283;-81
2023/03/05 00:41:37;;;;;;;0.73;0.38;;;27.50;99.90;;;;;;5053051;28;22264;-84
2023/03/05 00:44:08;;;;;;;2.10;0.40;;;27.60;99.90;;;;;;5045184;28;20205;-81
2023/03/05 00:46:40;;;;;;;1.73;0.30;;;27.60;99.90;;;;;;5047469;28;20205;-80
2023/03/05 00:49:13;;;;;;;3.03;0.50;;;27.60;99.90;;;;;;5050927;28;20201;-79
2023/03/05 00:51:44;;;;;;;1.27;0.40;;;27.70;99.90;;;;;;5053703;28;20197;-83
2023/03/05 00:54:15;;;;;;;0.80;0.30;;;27.80;99.90;;;;;;5052777;28;20197;-78
2023/03/05 00:56:47;;;;;;;1.98;0.38;;;28.00;99.90;;;;;;5055396;28;20204;-82
2023/03/05 00:59:19;;;;;;;1.48;0.50;;;28.00;99.90;;;;;;5055439;28;20296;-81
2023/03/05 01:01:50;;;;;;;2.50;0.40;;;27.90;99.90;;;;;;5054702;28;20202;-83
2023/03/05 01:04:23;;;;;;;1.17;0.47;;;27.90;99.90;;;;;;5053844;28;20196;-82
2023/03/05 01:06:54;;;;;;;1.35;0.40;;;27.90;99.90;;;;;;5047708;28;20199;-84
2023/03/05 01:09:26;;;;;;;2.30;0.60;;;28.00;99.90;;;;;;5054356;28;20229;-82
2023/03/05 01:11:58;;;;;;;2.08;0.35;;;28.00;99.90;;;;;;5054293;28;20201;-83
2023/03/05 01:14:30;;;;;;;1.35;0.43;;;28.20;99.90;;;;;;5055690;28;20201;-80
2023/03/05 01:17:01;;;;;;;2.15;0.57;;;28.30;99.90;;;;;;5054262;28;20240;-80
2023/03/05 01:19:34;;;;;;;1.95;0.40;;;28.30;99.90;;;;;;5053674;28;20214;-81
2023/03/05 01:22:05;;;;;;;1.45;0.80;;;28.40;99.90;;;;;;5054441;28;20198;-81
2023/03/05 01:24:36;;;;;;;1.45;0.50;;;28.60;99.90;;;;;;5052741;28;20198;-81
2023/03/05 01:27:07;;;;;;;2.97;0.60;;;28.80;99.90;;;;;;5051900;28;20197;-82
2023/03/05 01:29:39;;;;;;;1.58;0.38;;;28.70;99.90;;;;;;5053561;28;20189;-82
2023/03/05 01:32:10;;;;;;;1.90;0.40;;;28.70;99.90;;;;;;5054094;28;20193;-85
2023/03/05 01:34:43;;;;;;;0.77;0.35;;;28.70;99.90;;;;;;5049460;28;20692;-80
2023/03/05 01:37:14;;;;;;;1.55;0.32;;;28.80;99.90;;;;;;5050324;28;20213;-82
2023/03/05 01:39:45;;;;;;;2.83;0.50;;;28.90;99.90;;;;;;5041105;28;20213;-84
2023/03/05 01:42:18;;;;;;;1.13;0.40;;;29.00;99.90;;;;;;5048627;28;20203;-81
2023/03/05 01:45:05;;;;;;;1.10;0.40;;;29.10;99.90;;;;;;5052022;28;20190;-83
2023/03/05 01:47:36;;;;;;;3.50;0.60;;;29.20;99.90;;;;;;5053202;28;20202;-83
2023/03/05 01:50:12;;;;;;;1.60;0.85;;;29.20;99.90;;;;;;5049651;28;20198;-82
2023/03/05 01:52:45;;;;;;;1.80;0.50;;;29.30;99.90;;;;;;5053234;28;20200;-81
2023/03/05 01:55:20;;;;;;;1.10;0.45;;;29.40;99.90;;;;;;5050351;28;20209;-81
2023/03/05 01:57:55;;;;;;;1.73;0.55;;;29.30;99.90;;;;;;5052779;28;20209;-82
2023/03/05 02:00:30;;;;;;;1.67;0.80;;;29.40;99.90;;;;;;5053570;28;20220;-81
2023/03/05 02:03:03;;;;;;;3.55;0.55;;;29.40;99.90;;;;;;5046639;28;20196;-80
2023/03/05 02:05:40;;;;;;;1.80;0.68;;;29.40;99.90;;;;;;5053226;28;20567;-80
2023/03/05 02:08:13;;;;;;;6.22;1.00;;;29.20;99.90;;;;;;5052296;28;20203;-80
2023/03/05 02:10:46;;;;;;;4.40;0.90;;;29.30;99.90;;;;;;5053682;28;20221;-79
2023/03/05 02:13:24;;;;;;;3.97;0.82;;;29.50;99.90;;;;;;5053492;28;20549;-80
2023/03/05 02:15:57;;;;;;;5.50;0.95;;;29.60;99.90;;;;;;5052752;28;20215;-80
2023/03/05 02:18:28;;;;;;;5.50;1.10;;;29.50;99.90;;;;;;5053354;28;20190;-80
2023/03/05 02:21:06;;;;;;;3.47;0.90;;;29.20;99.90;;;;;;5050408;28;20214;-79
2023/03/05 02:23:39;;;;;;;4.32;1.05;;;29.30;99.90;;;;;;5042290;28;20209;-79
2023/03/05 02:26:12;;;;;;;4.85;0.88;;;29.00;99.90;;;;;;5054927;28;20208;-81
2023/03/05 02:28:46;;;;;;;6.30;0.95;;;29.00;99.90;;;;;;5054477;28;20220;-80
2023/03/05 02:31:19;;;;;;;4.65;0.90;;;28.80;99.90;;;;;;5051526;28;20204;-80
2023/03/05 02:33:51;;;;;;;2.75;0.68;;;29.00;99.90;;;;;;5045758;28;20201;-80
2023/03/05 02:36:25;;;;;;;4.15;1.30;;;29.10;99.90;;;;;;5054073;28;20676;-85
2023/03/05 02:38:57;;;;;;;6.15;1.08;;;29.20;99.90;;;;;;5054495;28;20229;-80
2023/03/05 02:41:28;;;;;;;5.45;1.25;;;29.10;99.90;;;;;;5049599;28;20280;-82
2023/03/05 02:44:00;;;;;;;3.92;0.85;;;29.10;99.90;;;;;;5053666;28;20194;-79
2023/03/05 02:46:31;;;;;;;5.78;1.00;;;29.10;99.90;;;;;;5052336;28;20201;-83
2023/03/05 02:49:02;;;;;;;4.45;0.88;;;28.80;99.90;;;;;;5053945;28;20201;-82
2023/03/05 02:51:41;;;;;;;7.20;1.10;;;28.70;99.90;;;;;;5054374;28;20189;-82
2023/03/05 02:54:16;;;;;;;4.43;0.70;;;28.70;99.90;;;;;;5054087;28;20220;-81
2023/03/05 02:56:47;;;;;;;2.85;1.00;;;28.50;99.90;;;;;;5053897;28;20603;-81
2023/03/05 02:59:18;;;;;;;4.45;0.90;;;28.60;99.90;;;;;;5054418;28;20194;-82
2023/03/05 03:01:49;;;;;;;2.00;0.75;;;28.60;99.90;;;;;;5054048;28;20664;-82
2023/03/05 03:04:20;;;;;;;4.30;0.82;;;28.40;99.90;;;;;;5054397;28;20185;-81
2023/03/05 03:06:53;;;;;;;5.05;0.88;;;28.40;99.90;;;;;;5054665;28;20186;-79
2023/03/05 03:09:25;;;;;;;6.38;1.02;;;28.50;99.90;;;;;;5053785;28;20248;-80
2023/03/05 03:11:56;;;;;;;4.03;0.70;;;28.40;99.90;;;;;;5054295;28;20186;-79
2023/03/05 03:14:27;;;;;;;3.08;0.90;;;28.60;99.90;;;;;;5054027;28;20189;-81
2023/03/05 03:16:59;;;;;;;5.55;0.90;;;28.60;99.90;;;;;;5053395;28;20587;-80
2023/03/05 03:19:30;;;;;;;4.97;1.00;;;28.70;99.90;;;;;;5050921;28;20206;-83
2023/03/05 03:22:03;;;;;;;3.90;0.82;;;28.70;99.90;;;;;;5053968;28;20186;-81
2023/03/05 03:24:35;;;;;;;3.92;0.80;;;28.60;99.90;;;;;;5035909;28;20194;-87
2023/03/05 03:27:06;;;;;;;5.88;1.00;;;28.60;99.90;;;;;;5033080;28;20213;-82
2023/03/05 03:29:38;;;;;;;4.85;0.70;;;28.60;99.90;;;;;;5045019;28;20193;-80
2023/03/05 03:32:09;;;;;;;4.45;0.80;;;28.40;99.90;;;;;;5053523;28;20189;-82
2023/03/05 03:34:40;;;;;;;2.58;0.80;;;28.50;99.90;;;;;;5053730;28;20200;-79
2023/03/05 03:37:13;;;;;;;5.80;1.00;;;28.60;99.90;;;;;;5053834;28;20186;-82
2023/03/05 03:39:44;;;;;;;4.47;1.25;;;28.50;99.90;;;;;;5053496;28;20232;-79
2023/03/05 03:42:18;;;;;;;3.67;0.60;;;28.50;99.90;;;;;;5053590;28;20201;-78
2023/03/05 03:44:49;;;;;;;2.95;0.90;;;28.50;99.90;;;;;;5053175;28;20213;-79
2023/03/05 03:47:20;;;;;;;2.72;0.60;;;28.40;99.90;;;;;;5053603;28;20198;-78
2023/03/05 03:49:57;;;;;;;4.28;1.00;;;28.50;99.90;;;;;;5049232;28;20201;-79
2023/03/05 03:52:30;;;;;;;3.00;0.70;;;28.50;99.90;;;;;;5052892;28;20255;-80
2023/03/05 03:55:02;;;;;;;6.82;1.00;;;28.50;99.90;;;;;;5052163;28;20201;-78
2023/03/05 03:57:34;;;;;;;4.95;1.08;;;28.50;99.90;;;;;;5048828;28;20616;-79
2023/03/05 04:00:06;;;;;;;6.18;1.00;;;28.30;99.90;;;;;;5048761;28;20243;-80
2023/03/05 04:02:37;;;;;;;4.95;0.70;;;28.40;99.90;;;;;;5047717;28;20582;-80
2023/03/05 04:05:09;;;;;;;4.95;0.90;;;28.50;99.90;;;;;;5048632;28;20248;-78
2023/03/05 04:07:44;;;;;;;3.03;0.80;;;28.60;99.90;;;;;;5053246;28;20196;-77
2023/03/05 04:10:15;;;;;;;6.72;0.90;;;28.40;99.90;;;;;;5052950;28;20293;-77
2023/03/05 04:12:46;;;;;;;3.65;0.80;;;28.50;99.90;;;;;;5038505;28;20204;-81
2023/03/05 04:15:17;;;;;;;4.40;0.98;;;28.50;99.90;;;;;;5051355;28;20205;-80
2023/03/05 04:17:48;;;;;;;9.35;1.10;;;28.40;99.90;;;;;;5052747;28;20193;-79
2023/03/05 04:20:20;;;;;;;4.78;1.00;;;28.30;99.90;;;;;;5052583;28;20213;-80
2023/03/05 04:22:53;;;;;;;2.83;0.77;;;28.10;99.90;;;;;;5051122;28;20220;-80
2023/03/05 04:25:24;;;;;;;4.28;0.80;;;28.00;99.90;;;;;;5051871;28;20217;-81
2023/03/05 04:27:55;;;;;;;3.20;0.70;;;28.00;99.90;;;;;;5053264;28;20193;-78
2023/03/05 04:30:30;;;;;;;5.65;0.82;;;28.00;99.90;;;;;;5050741;28;20931;-82
2023/03/05 04:33:01;;;;;;;5.43;1.10;;;27.80;99.90;;;;;;5051525;28;20205;-78
2023/03/05 04:35:32;;;;;;;5.22;0.90;;;28.00;99.90;;;;;;5052965;28;20205;-79
2023/03/05 04:38:05;;;;;;;4.57;0.70;;;28.00;99.90;;;;;;5052230;28;20270;-82
2023/03/05 04:40:36;;;;;;;3.13;0.65;;;28.00;99.90;;;;;;5050470;28;20217;-79
2023/03/05 04:43:08;;;;;;;4.03;0.80;;;27.90;99.90;;;;;;5052506;28;20194;-78
2023/03/05 04:45:41;;;;;;;5.72;1.48;;;27.80;99.90;;;;;;5049999;28;20582;-82
2023/03/05 04:48:14;;;;;;;4.18;0.60;;;27.70;99.90;;;;;;5051017;28;20259;-80
2023/03/05 04:50:45;;;;;;;3.72;0.75;;;27.90;99.90;;;;;;5051859;28;20224;-80
2023/03/05 04:53:18;;;;;;;4.97;0.95;;;27.90;99.90;;;;;;5052900;28;20566;-81
2023/03/05 04:55:53;;;;;;;4.38;0.93;;;27.70;99.90;;;;;;5052659;28;20568;-78
2023/03/05 04:58:25;;;;;;;5.57;0.80;;;27.80;99.90;;;;;;5051194;28;20213;-77
2023/03/05 05:00:56;;;;;;;3.75;0.80;;;27.60;99.90;;;;;;5050106;28;20213;-79
2023/03/05 05:03:27;;;;;;;4.25;1.23;;;27.50;99.90;;;;;;5051572;28;20664;-80
2023/03/05 05:05:59;;;;;;;3.88;0.80;;;27.70;99.90;;;;;;5051938;28;20664;-78
2023/03/05 05:08:32;;;;;;;4.80;0.90;;;27.70;99.90;;;;;;5051969;28;20198;-77
2023/03/05 05:11:05;;;;;;;4.43;0.88;;;27.80;99.90;;;;;;5052050;28;20201;-79
2023/03/05 05:13:36;;;;;;;5.88;0.88;;;27.80;99.90;;;;;;5051528;28;20568;-76
2023/03/05 05:16:10;;;;;;;4.75;1.25;;;27.90;99.90;;;;;;5050107;28;20197;-78
2023/03/05 05:18:41;;;;;;;5.25;0.80;;;27.80;99.90;;;;;;5050766;28;21201;-80
2023/03/05 05:21:14;;;;;;;4.15;0.90;;;27.70;99.90;;;;;;5050976;28;20229;-78
2023/03/05 05:23:47;;;;;;;3.50;0.90;;;27.60;99.90;;;;;;5051145;28;20194;-78
2023/03/05 05:26:18;;;;;;;3.55;0.80;;;27.60;99.90;;;;;;5050495;28;20535;-78
2023/03/05 05:28:49;;;;;;;5.53;0.75;;;27.60;99.90;;;;;;5054977;28;20193;-79
2023/03/05 05:31:20;;;;;;;5.13;0.85;;;27.40;99.90;;;;;;5056111;28;20190;-78
2023/03/05 05:33:51;;;;;;;6.22;0.88;;;27.30;99.90;;;;;;5055972;28;20281;-80
2023/03/05 05:36:23;;;;;;;3.88;0.80;;;27.30;99.90;;;;;;5056287;28;20546;-78
2023/03/05 05:38:56;;;;;;;3.05;0.80;;;27.40;99.90;;;;;;5056157;28;20198;-80
2023/03/05 05:41:27;;;;;;;5.03;0.90;;;27.50;99.90;;;;;;5054562;28;20224;-81
2023/03/05 05:43:58;;;;;;;5.80;1.20;;;27.50;99.90;;;;;;5055875;28;20676;-83
2023/03/05 05:46:29;;;;;;;6.25;1.10;;;27.50;99.90;;;;;;5055798;28;20194;-79
2023/03/05 05:49:00;;;;;;;4.40;0.82;;;27.60;99.90;;;;;;5055791;28;20629;-80
2023/03/05 05:51:31;;;;;;;10.38;1.15;;;27.60;99.90;;;;;;5055490;28;20568;-81
2023/03/05 05:54:04;;;;;;;5.75;0.90;;;27.60;99.90;;;;;;5055806;28;20629;-78
2023/03/05 05:56:36;;;;;;;4.93;1.17;;;27.50;99.90;;;;;;5053385;28;20649;-81
2023/03/05 05:59:07;;;;;;;4.70;0.95;;;27.30;99.90;;;;;;5055081;28;20547;-82
2023/03/05 06:01:38;;;;;;;4.28;0.85;;;27.20;99.90;;;;;;5047809;28;20224;-78
2023/03/05 06:04:09;;;;;;;3.80;0.80;;;27.20;99.90;;;;;;5055390;28;20205;-80
2023/03/05 06:06:40;;;;;;;6.75;1.30;;;27.10;99.90;;;;;;5055338;28;20202;-78
2023/03/05 06:09:13;;;;;;;8.20;1.17;;;27.10;99.90;;;;;;5054824;28;20225;-80
2023/03/05 06:11:44;;;;;;;7.82;1.10;;;27.20;99.90;;;;;;5055185;28;20645;-78
2023/03/05 06:14:16;;;;;;;5.68;1.00;;;27.20;99.90;;;;;;5055365;28;20559;-77
2023/03/05 06:16:47;;;;;;;5.13;0.70;;;27.00;99.90;;;;;;5068019;28;20203;-75
2023/03/05 06:19:19;;;;;;;5.55;0.90;;;27.00;99.90;;;;;;5075177;28;20185;-77
2023/03/05 06:21:50;;;;;;;5.60;0.88;;;26.90;99.90;;;;;;5072369;28;20216;-78
2023/03/05 06:24:23;;;;;;;2.63;0.82;;;26.80;99.90;;;;;;5053152;28;20198;-76
2023/03/05 06:26:54;;;;;;;7.68;1.10;;;26.80;99.90;;;;;;5053461;28;20194;-77
2023/03/05 06:29:25;;;;;;;8.57;1.10;;;26.80;99.90;;;;;;5052880;28;20559;-79
2023/03/05 06:31:56;;;;;;;3.90;0.95;;;26.80;99.90;;;;;;5052956;28;20667;-79
2023/03/05 06:34:28;;;;;;;5.45;1.00;;;26.70;99.90;;;;;;5053452;28;20202;-78
2023/03/05 06:36:59;;;;;;;6.25;0.90;;;26.80;99.90;;;;;;5053451;28;20198;-79
2023/03/05 06:39:32;;;;;;;11.23;1.30;;;26.60;99.90;;;;;;5046963;28;20201;-80
2023/03/05 06:42:03;;;;;;;6.80;1.30;;;26.60;99.90;;;;;;5042536;28;20252;-82
2023/03/05 06:44:34;;;;;;;8.20;1.70;;;26.60;99.90;;;;;;5054490;28;20563;-79
2023/03/05 06:47:07;;;;;;;9.43;1.30;;;26.60;99.90;;;;;;5051051;28;20202;-78
2023/03/05 06:49:38;;;;;;;8.20;1.23;;;26.60;99.90;;;;;;5051691;28;20579;-79
2023/03/05 06:52:11;;;;;;;4.43;1.10;;;26.60;99.90;;;;;;5050659;28;20194;-82
2023/03/05 06:54:46;;;;;;;5.63;1.23;;;26.60;99.90;;;;;;5051020;28;20197;-78
2023/03/05 06:57:17;;;;;;;4.65;1.10;;;26.60;99.90;;;;;;5053383;28;20923;-78
2023/03/05 06:59:48;;;;;;;4.25;1.10;;;26.60;99.90;;;;;;5052177;28;20558;-77
2023/03/05 07:02:19;;;;;;;6.65;1.20;;;26.40;99.90;;;;;;5052407;28;20584;-78
2023/03/05 07:04:50;;;;;;;4.22;1.00;;;26.40;99.90;;;;;;5052175;28;20193;-80
2023/03/05 07:07:21;;;;;;;9.45;1.00;;;26.30;99.90;;;;;;5054356;28;20198;-76
2023/03/05 07:09:54;;;;;;;5.97;1.05;;;26.30;99.90;;;;;;5052438;28;20237;-77
2023/03/05 07:12:25;;;;;;;7.43;1.13;;;26.30;99.90;;;;;;5053612;28;20569;-78
2023/03/05 07:14:56;;;;;;;5.47;1.20;;;26.20;99.90;;;;;;5049520;28;20649;-79
2023/03/05 07:17:27;;;;;;;6.03;1.00;;;26.20;99.90;;;;;;5053671;28;20567;-78
2023/03/05 07:19:58;;;;;;;5.95;1.05;;;26.20;99.90;;;;;;5051555;28;20200;-78
2023/03/05 07:22:31;;;;;;;6.22;1.20;;;26.10;99.90;;;;;;5048779;28;20228;-81
2023/03/05 07:25:04;;;;;;;6.82;1.45;;;26.10;99.90;;;;;;5053034;28;20200;-75
2023/03/05 07:27:38;;;;;;;5.78;1.15;;;26.00;99.90;;;;;;5051808;28;20652;-76
2023/03/05 07:30:10;;;;;;;5.00;1.08;;;25.90;99.90;;;;;;5053042;28;20196;-79
2023/03/05 07:32:41;;;;;;;9.10;1.30;;;25.90;99.90;;;;;;5050078;28;20200;-77
2023/03/05 07:35:13;;;;;;;5.22;1.10;;;25.80;99.90;;;;;;5051857;28;20200;-78
2023/03/05 07:37:44;;;;;;;8.40;1.10;;;25.80;99.90;;;;;;5052028;28;20203;-76
2023/03/05 07:40:17;;;;;;;6.90;1.23;;;25.70;99.90;;;;;;5053273;28;20212;-79
2023/03/05 07:42:48;;;;;;;6.43;1.20;;;25.60;99.90;;;;;;5052440;28;20243;-76
2023/03/05 07:45:19;;;;;;;11.00;1.30;;;25.60;99.90;;;;;;5047823;28;20209;-81
2023/03/05 07:47:50;;;;;;;6.28;1.23;;;25.60;99.90;;;;;;5047783;28;20193;-79
2023/03/05 07:50:21;;;;;;;7.05;1.17;;;25.60;99.90;;;;;;5049475;28;20198;-75
2023/03/05 07:52:52;;;;;;;8.57;1.40;;;25.50;99.90;;;;;;5053204;28;20569;-79
2023/03/05 07:55:25;;;;;;;8.57;1.35;;;25.40;99.90;;;;;;5050685;28;20189;-77
2023/03/05 07:57:57;;;;;;;6.22;1.20;;;25.40;99.90;;;;;;5049537;28;20200;-76
2023/03/05 08:00:28;;;;;;;8.13;1.20;;;25.30;99.90;;;;;;5052230;28;20205;-77
2023/03/05 08:02:59;;;;;;;9.30;1.15;;;25.30;99.90;;;;;;5052080;28;20739;-77
2023/03/05 08:05:30;;;;;;;10.13;1.20;;;25.20;99.90;;;;;;5053177;28;20648;-77
2023/03/05 08:08:01;;;;;;;7.05;1.30;;;25.20;99.90;;;;;;5052737;28;20189;-77
2023/03/05 08:10:34;;;;;;;6.88;1.30;;;25.10;99.90;;;;;;5050984;28;20229;-77
2023/03/05 08:13:09;;;;;;;9.15;1.23;;;25.10;99.90;;;;;;5050999;28;20579;-75
2023/03/05 08:15:41;;;;;;;12.43;1.33;;;25.00;99.90;;;;;;5052989;28;20193;-77
2023/03/05 08:18:12;;;;;;;11.60;1.50;;;25.00;99.90;;;;;;5051754;28;20201;-77
2023/03/05 08:20:43;;;;;;;7.47;1.20;;;25.00;99.90;;;;;;5051688;28;20687;-77
2023/03/05 08:23:14;;;;;;;6.55;1.20;;;25.00;99.90;;;;;;5051744;28;20202;-77
2023/03/05 08:25:47;;;;;;;6.80;1.25;;;24.90;99.90;;;;;;5051067;28;20766;-78
2023/03/05 08:28:19;;;;;;;10.52;1.80;;;24.90;99.90;;;;;;5051647;28;20201;-79
2023/03/05 08:30:50;;;;;;;7.95;1.50;;;24.80;99.90;;;;;;5052119;28;20854;-79
2023/03/05 08:33:21;;;;;;;9.27;1.55;;;24.80;99.90;;;;;;5051963;28;20197;-77
2023/03/05 08:35:53;;;;;;;11.35;1.30;;;24.80;99.90;;;;;;5051355;28;20201;-77
2023/03/05 08:38:24;;;;;;;7.60;1.30;;;24.80;99.90;;;;;;5047720;28;20193;-80
2023/03/05 08:40:57;;;;;;;10.10;1.30;;;24.70;99.90;;;;;;5051739;28;20220;-77
2023/03/05 08:43:28;;;;;;;5.80;1.13;;;24.70;99.90;;;;;;5044674;28;20197;-76
2023/03/05 08:45:59;;;;;;;8.25;1.35;;;24.60;99.90;;;;;;5046868;28;20206;-77
2023/03/05 08:48:30;;;;;;;10.38;1.20;;;24.60;99.90;;;;;;5046985;28;20206;-78
2023/03/05 08:51:06;;;;;;;6.13;1.27;;;24.60;99.90;;;;;;5046666;28;20205;-79
2023/03/05 08:53:38;;;;;;;7.50;1.50;;;24.60;99.90;;;;;;5048779;28;20190;-78
2023/03/05 08:56:11;;;;;;;6.00;1.27;;;24.60;99.90;;;;;;5048928;28;20197;-77
2023/03/05 08:58:42;;;;;;;8.32;1.40;;;24.50;99.90;;;;;;5049587;28;20193;-79
2023/03/05 09:01:14;;;;;;;7.90;1.40;;;24.50;99.90;;;;;;5049047;28;20699;-78
2023/03/05 09:03:45;;;;;;;11.60;1.90;;;24.50;99.90;;;;;;5051212;28;20645;-78
2023/03/05 09:06:16;;;;;;;13.02;1.88;;;24.50;99.90;;;;;;5042782;28;21801;-79
2023/03/05 09:08:48;;;;;;;9.75;1.63;;;24.50;99.90;;;;;;5055925;28;20248;-77
2023/03/05 09:11:22;;;;;;;9.27;1.75;;;24.50;99.90;;;;;;5056287;28;20201;-78
2023/03/05 09:13:53;;;;;;;8.32;1.30;;;24.50;99.90;;;;;;5055044;28;20197;-77
2023/03/05 09:16:24;;;;;;;7.13;1.50;;;24.40;99.90;;;;;;5053477;28;20203;-76
2023/03/05 09:18:55;;;;;;;11.48;1.15;;;24.50;99.90;;;;;;5055537;28;20208;-77
2023/03/05 09:21:26;;;;;;;7.47;1.33;;;24.50;99.90;;;;;;5055218;28;20213;-77
2023/03/05 09:23:59;;;;;;;6.05;1.30;;;24.40;99.90;;;;;;5055441;28;20197;-79
2023/03/05 09:26:32;;;;;;;8.32;1.38;;;24.40;99.90;;;;;;5055042;28;20276;-79
2023/03/05 09:29:03;;;;;;;8.63;1.50;;;24.40;99.90;;;;;;5054714;28;20197;-79
2023/03/05 09:31:34;;;;;;;8.63;1.75;;;24.40;99.90;;;;;;5053711;28;20206;-79
2023/03/05 09:34:06;;;;;;;11.95;1.40;;;24.40;99.90;;;;;;5053747;28;20197;-76
2023/03/05 09:36:37;;;;;;;10.45;1.60;;;24.40;99.90;;;;;;5055814;28;20256;-76
2023/03/05 09:39:08;;;;;;;9.05;1.50;;;24.40;99.90;;;;;;5049711;28;20193;-76
2023/03/05 09:42:07;;;;;;;10.98;1.50;;;24.30;99.90;;;;;;5051744;28;20221;-78
2023/03/05 09:44:45;;;;;;;13.07;1.52;;;24.30;99.90;;;;;;5037296;28;20197;-78
2023/03/05 09:47:37;;;;;;;8.18;1.50;;;24.40;99.90;;;;;;5054258;28;20194;-79
2023/03/05 09:50:14;;;;;;;7.68;1.58;;;24.30;99.90;;;;;;5053921;28;20209;-75
2023/03/05 09:52:50;;;;;;;8.35;1.38;;;24.40;99.90;;;;;;5052965;28;20204;-77
2023/03/05 09:55:29;;;;;;;6.75;1.35;;;24.30;99.90;;;;;;5053948;28;20680;-81
2023/03/05 09:58:08;;;;;;;8.00;1.20;;;24.40;99.90;;;;;;5046941;28;20197;-78
2023/03/05 10:00:46;;;;;;;7.80;1.40;;;24.30;99.90;;;;;;5055117;28;20695;-79
2023/03/05 10:03:22;;;;;;;6.03;1.48;;;24.30;99.90;;;;;;5054819;28;20224;-76
2023/03/05 10:06:12;;;;;;;6.78;1.40;;;24.40;99.90;;;;;;5052951;28;20204;-77
2023/03/05 10:08:55;;;;;;;8.80;1.30;;;24.40;99.90;;;;;;5043284;28;20240;-80
2023/03/05 10:11:46;;;;;;;13.15;1.90;;;24.30;99.90;;;;;;5051840;28;20201;-78
2023/03/05 10:14:27;;;;;;;11.73;1.65;;;24.40;99.90;;;;;;5053370;28;20201;-76
2023/03/05 10:17:36;;;;;;;9.05;1.60;;;24.30;99.90;;;;;;5048108;28;20193;-79
2023/03/05 10:20:43;;;;;;;7.70;1.30;;;24.30;99.90;;;;;;5053739;28;20653;-76
2023/03/05 10:23:44;;;;;;;9.60;1.50;;;24.30;99.90;;;;;;5043334;28;20692;-79
2023/03/05 10:26:28;;;;;;;11.07;1.52;;;24.30;99.90;;;;;;5054754;28;20197;-80
2023/03/05 10:29:17;;;;;;;9.38;1.63;;;24.30;99.90;;;;;;5053275;28;20193;-80
2023/03/05 10:32:02;;;;;;;6.35;1.25;;;24.20;99.90;;;;;;5043363;28;20201;-80
2023/03/05 10:35:07;;;;;;;9.70;1.50;;;24.20;99.90;;;;;;5055124;28;20190;-79
2023/03/05 10:38:01;;;;;;;10.57;1.55;;;24.30;99.90;;;;;;5054452;28;20197;-78
2023/03/05 10:40:38;;;;;;;12.05;1.40;;;24.20;99.90;;;;;;5009630;28;20204;-78
2023/03/05 10:43:19;;;;;;;9.98;1.58;;;24.20;99.90;;;;;;5051683;28;20224;-79
2023/03/05 10:45:52;;;;;;;11.07;1.40;;;24.20;99.90;;;;;;5052513;28;20564;-79
2023/03/05 10:48:37;;;;;;;5.38;1.30;;;24.20;99.90;;;;;;5046874;28;20194;-79
2023/03/05 10:51:17;;;;;;;8.95;1.35;;;24.20;99.90;;;;;;5053585;28;20201;-79
2023/03/05 10:53:56;;;;;;;8.50;1.58;;;24.20;99.90;;;;;;5051145;28;20204;-79
2023/03/05 10:56:30;;;;;;;11.07;1.67;;;24.20;99.90;;;;;;5044592;28;20548;-77
2023/03/05 10:59:01;;;;;;;9.18;1.42;;;24.20;99.90;;;;;;5054143;28;20565;-79
2023/03/05 11:01:32;;;;;;;9.55;1.40;;;24.10;99.90;;;;;;5052930;28;20801;-79
2023/03/05 11:04:07;;;;;;;4.50;1.17;;;24.10;99.90;;;;;;5049450;28;20194;-80
2023/03/05 11:06:41;;;;;;;8.13;1.40;;;24.10;99.90;;;;;;5051385;28;20209;-80
2023/03/05 11:09:27;;;;;;;8.30;1.20;;;24.10;99.90;;;;;;5052402;28;20583;-79
2023/03/05 11:12:20;;;;;;;8.80;1.50;;;24.10;99.90;;;;;;5052381;28;20237;-79
2023/03/05 11:15:08;;;;;;;11.02;1.80;;;24.10;99.90;;;;;;5051965;28;20205;-80
2023/03/05 11:17:42;;;;;;;4.22;1.00;;;24.10;99.90;;;;;;5052840;28;20198;-79
2023/03/05 11:20:35;;;;;;;6.30;1.35;;;24.10;99.90;;;;;;5045205;28;20653;-79
2023/03/05 11:23:11;;;;;;;3.40;0.88;;;24.10;99.90;;;;;;5052871;28;20213;-80
2023/03/05 11:26:00;;;;;;;7.35;1.30;;;24.10;99.90;;;;;;5052686;28;20220;-79
2023/03/05 11:28:34;;;;;;;9.80;1.30;;;24.10;99.90;;;;;;5048850;28;20579;-79
2023/03/05 11:31:23;;;;;;;8.38;1.42;;;24.00;99.90;;;;;;5053604;28;20563;-80
2023/03/05 11:34:05;;;;;;;6.13;1.40;;;24.00;99.90;;;;;;5053775;28;20248;-79
2023/03/05 11:36:39;;;;;;;7.70;1.15;;;24.00;99.90;;;;;;5050589;28;20564;-79
2023/03/05 11:39:18;;;;;;;5.97;1.30;;;24.00;99.90;;;;;;5053198;28;20258;-79
2023/03/05 11:41:53;;;;;;;7.13;1.50;;;24.00;99.90;;;;;;5052377;28;20616;-79
2023/03/05 11:44:26;;;;;;;4.82;1.27;;;24.00;99.90;;;;;;5053240;28;20193;-79
2023/03/05 11:47:01;;;;;;;5.18;1.10;;;24.00;99.90;;;;;;5052499;28;20217;-79
2023/03/05 11:49:33;;;;;;;7.35;1.40;;;24.00;99.90;;;;;;5050103;28;20193;-79
2023/03/05 11:52:13;;;;;;;6.28;1.20;;;24.00;99.90;;;;;;5049922;28;20281;-78
2023/03/05 11:54:57;;;;;;;4.75;1.30;;;23.90;99.90;;;;;;5045483;28;20193;-79
2023/03/05 11:57:31;;;;;;;4.90;0.95;;;23.90;99.90;;;;;;5049828;28;20652;-78
2023/03/05 12:00:11;;;;;;;11.90;1.77;;;23.90;99.90;;;;;;5049305;28;20197;-79
2023/03/05 12:02:42;;;;;;;5.32;1.10;;;23.90;99.90;;;;;;5050449;28;20286;-79
2023/03/05 12:05:17;;;;;;;7.65;1.27;;;23.80;99.90;;;;;;5048633;28;20665;-78
2023/03/05 12:07:52;;;;;;;5.93;1.30;;;23.80;99.90;;;;;;5049588;28;20197;-79
2023/03/05 12:10:26;;;;;;;5.25;1.42;;;23.80;99.90;;;;;;5049750;28;20303;-79
2023/03/05 12:13:05;;;;;;;4.82;1.30;;;23.80;99.90;;;;;;5048146;28;20578;-79
2023/03/05 12:15:48;;;;;;;6.60;1.40;;;23.80;99.90;;;;;;5052237;28;20197;-79
2023/03/05 12:18:32;;;;;;;4.20;0.77;;;23.80;99.90;;;;;;5051909;28;20205;-79
2023/03/05 12:21:08;;;;;;;4.13;1.10;;;23.70;99.90;;;;;;5052297;28;20197;-79
2023/03/05 12:23:52;;;;;;;5.60;1.20;;;23.70;99.90;;;;;;5051973;28;20236;-79
2023/03/05 12:27:08;;;;;;;5.30;1.30;;;23.70;99.90;;;;;;5050744;28;20190;-78
2023/03/05 12:29:44;;;;;;;5.00;1.17;;;23.80;99.90;;;;;;5052514;28;20740;-79
2023/03/05 12:32:59;;;;;;;4.63;1.10;;;23.80;99.90;;;;;;5052553;28;20206;-79
2023/03/05 12:35:39;;;;;;;6.15;1.52;;;23.80;99.90;;;;;;5048800;28;20194;-79
2023/03/05 12:38:34;;;;;;;5.28;1.30;;;23.70;99.90;;;;;;5053784;28;20206;-80
2023/03/05 12:41:42;;;;;;;5.85;1.30;;;23.70;99.90;;;;;;5054508;28;20193;-79
2023/03/05 12:44:21;;;;;;;4.10;1.00;;;23.70;99.90;;;;;;5056771;28;20219;-80
2023/03/05 12:47:22;;;;;;;7.03;1.48;;;23.70;99.90;;;;;;5054652;28;20277;-78
2023/03/05 12:49:53;;;;;;;5.05;1.20;;;23.70;99.90;;;;;;5037029;28;20559;-79
2023/03/05 12:52:32;;;;;;;4.93;1.33;;;23.70;99.90;;;;;;5055484;28;20197;-81
2023/03/05 12:55:35;;;;;;;4.75;1.30;;;23.70;99.90;;;;;;5045637;28;20201;-81
2023/03/05 12:58:14;;;;;;;7.05;1.35;;;23.70;99.90;;;;;;4956663;29;20204;-81
2023/03/05 13:00:55;;;;;;;4.88;1.20;;;23.60;99.90;;;;;;5045691;28;20193;-80
2023/03/05 13:03:30;;;;;;;6.75;1.20;;;23.60;99.90;;;;;;5056258;28;20217;-81
2023/03/05 13:06:03;;;;;;;4.97;1.20;;;23.60;99.90;;;;;;5054918;28;20255;-80
2023/03/05 13:08:36;;;;;;;8.77;1.20;;;23.60;99.90;;;;;;5056411;28;20221;-81
2023/03/05 13:11:10;;;;;;;6.38;1.10;;;23.60;99.90;;;;;;5053844;28;20187;-80
2023/03/05 13:13:46;;;;;;;4.28;1.20;;;23.60;99.90;;;;;;5053666;28;20193;-81
2023/03/05 13:16:24;;;;;;;4.80;1.00;;;23.60;99.90;;;;;;5053409;28;20675;-81
2023/03/05 13:18:57;;;;;;;3.80;1.30;;;23.60;99.90;;;;;;5056258;28;20196;-80
2023/03/05 13:21:30;;;;;;;4.90;0.93;;;23.50;99.90;;;;;;5055561;28;20205;-81
2023/03/05 13:24:03;;;;;;;5.72;1.27;;;23.50;99.90;;;;;;5055064;28;20695;-79